createdAt,value
2023-04-15T00:00:57.430Z,94634.81
2023-04-15T00:03:26.416Z,94631.81
2023-04-15T00:05:53.852Z,94627.50
2023-04-15T00:08:21.077Z,94628.06
2023-04-15T00:10:48.408Z,94626.03
2023-04-15T00:13:15.550Z,94626.81
2023-04-15T00:15:42.683Z,94625.09
2023-04-15T00:18:09.831Z,94626.47
2023-04-15T00:20:38.413Z,94626.91
2023-04-15T00:23:05.591Z,94624.09
2023-04-15T00:25:32.748Z,94619.63
2023-04-15T00:27:59.839Z,94620.22
2023-04-15T00:30:27.278Z,94624.53
2023-04-15T00:32:54.482Z,94624.09
2023-04-15T00:35:21.610Z,94619.97
2023-04-15T00:37:50.236Z,94619.97
2023-04-15T00:40:21.089Z,94626.16
2023-04-15T00:42:48.276Z,94625.78
2023-04-15T00:45:15.482Z,94626.50
2023-04-15T00:47:44.260Z,94628.31
2023-04-15T00:50:12.489Z,94628.44
2023-04-15T00:52:40.207Z,94625.00
2023-04-15T00:55:10.495Z,94619.75
2023-04-15T00:57:39.340Z,94626.69
2023-04-15T01:00:07.692Z,94615.53
2023-04-15T01:02:35.331Z,94624.19
2023-04-15T01:05:03.866Z,94628.56
2023-04-15T01:07:31.106Z,94617.50
2023-04-15T01:09:58.728Z,94616.34
2023-04-15T01:12:29.558Z,94619.19
2023-04-15T01:14:57.373Z,94615.53
2023-04-15T01:17:25.221Z,94616.22
2023-04-15T01:19:53.718Z,94617.94
2023-04-15T01:22:21.006Z,94621.38
2023-04-15T01:24:55.885Z,94621.03
2023-04-15T01:27:25.346Z,94625.69
2023-04-15T01:29:52.566Z,94623.28
2023-04-15T01:32:19.809Z,94626.72
2023-04-15T01:34:46.909Z,94630.25
2023-04-15T01:37:14.298Z,94621.81
2023-04-15T01:39:41.425Z,94624.50
2023-04-15T01:42:08.544Z,94620.84
2023-04-15T01:44:37.212Z,94618.00
2023-04-15T01:47:04.407Z,94621.50
2023-04-15T01:49:31.766Z,94611.09
2023-04-15T01:51:59.151Z,94615.59
2023-04-15T01:54:26.298Z,94608.63
2023-04-15T01:56:53.614Z,94608.31
2023-04-15T01:59:20.711Z,94602.09
2023-04-15T02:01:49.524Z,94607.00
2023-04-15T02:04:16.769Z,94601.78
2023-04-15T02:06:43.857Z,94604.75
2023-04-15T02:09:11.132Z,94603.22
2023-04-15T02:11:38.271Z,94602.47
2023-04-15T02:14:05.432Z,94598.78
2023-04-15T02:16:33.740Z,94607.78
2023-04-15T02:19:02.561Z,94599.63
2023-04-15T02:21:29.914Z,94606.06
2023-04-15T02:23:57.170Z,94594.31
2023-04-15T02:26:24.454Z,94596.69
2023-04-15T02:28:51.569Z,94589.72
2023-04-15T02:31:18.657Z,94595.00
2023-04-15T02:33:46.013Z,94586.94
2023-04-15T02:36:14.655Z,94586.06
2023-04-15T02:38:41.860Z,94588.69
2023-04-15T02:41:09.832Z,94579.69
2023-04-15T02:43:36.957Z,94578.53
2023-04-15T02:46:04.166Z,94584.31
2023-04-15T02:48:31.595Z,94579.28
2023-04-15T02:51:12.542Z,94583.94
2023-04-15T02:53:41.412Z,94583.22
2023-04-15T02:56:08.968Z,94589.78
2023-04-15T02:58:36.566Z,94581.13
2023-04-15T03:01:03.933Z,94596.41
2023-04-15T03:06:53.211Z,94590.97
2023-04-15T03:09:21.873Z,94587.63
2023-04-15T03:11:49.029Z,94596.41
2023-04-15T03:14:16.168Z,94593.16
2023-04-15T03:16:43.449Z,94595.72
2023-04-15T03:19:10.528Z,94591.25
2023-04-15T03:21:37.974Z,94587.63
2023-04-15T03:24:05.469Z,94586.53
2023-04-15T03:26:34.072Z,94586.13
2023-04-15T03:29:01.484Z,94587.78
2023-04-15T03:31:28.953Z,94578.53
2023-04-15T03:33:56.299Z,94573.28
2023-04-15T03:36:23.370Z,94582.56
2023-04-15T03:38:50.538Z,94585.69
2023-04-15T03:41:17.891Z,94579.56
2023-04-15T03:43:46.435Z,94582.00
2023-04-15T03:46:13.722Z,94573.84
2023-04-15T03:48:41.008Z,94580.66
2023-04-15T03:51:08.264Z,94576.72
2023-04-15T03:53:35.399Z,94577.47
2023-04-15T03:56:02.612Z,94580.88
2023-04-15T03:58:29.894Z,94586.63
2023-04-15T04:00:58.432Z,94588.34
2023-04-15T04:03:26.016Z,94586.44
2023-04-15T04:05:53.465Z,94574.59
2023-04-15T04:08:20.629Z,94580.91
2023-04-15T04:10:48.113Z,94578.00
2023-04-15T04:13:15.336Z,94582.50
2023-04-15T04:15:42.571Z,94577.91
2023-04-15T04:18:11.170Z,94578.16
2023-04-15T04:20:38.672Z,94579.41
2023-04-15T04:23:05.926Z,94580.66
2023-04-15T04:25:33.217Z,94580.25
2023-04-15T04:28:00.329Z,94585.59
2023-04-15T04:30:27.520Z,94590.34
2023-04-15T04:32:54.734Z,94585.16
2023-04-15T04:35:23.588Z,94586.75
2023-04-15T04:37:50.907Z,94582.97
2023-04-15T04:40:18.212Z,94584.03
2023-04-15T04:42:45.454Z,94579.00
2023-04-15T04:45:12.786Z,94585.88
2023-04-15T04:47:39.932Z,94585.88
2023-04-15T04:50:08.691Z,94577.06
2023-04-15T04:52:37.347Z,94569.09
2023-04-15T04:55:05.145Z,94564.28
2023-04-15T04:57:32.275Z,94572.56
2023-04-15T04:59:59.405Z,94569.97
2023-04-15T05:02:26.602Z,94574.16
2023-04-15T05:04:53.826Z,94572.28
2023-04-15T05:07:20.969Z,94565.47
2023-04-15T05:09:49.507Z,94567.06
2023-04-15T05:12:16.668Z,94575.25
2023-04-15T05:14:44.103Z,94566.56
2023-04-15T05:17:11.327Z,94565.69
2023-04-15T05:19:38.406Z,94576.72
2023-04-15T05:22:05.468Z,94570.38
2023-04-15T05:24:32.610Z,94568.16
2023-04-15T05:27:01.172Z,94566.19
2023-04-15T05:29:28.572Z,94565.41
2023-04-15T05:31:56.309Z,94569.56
2023-04-15T05:34:23.431Z,94562.03
2023-04-15T05:36:50.732Z,94560.69
2023-04-15T05:39:17.877Z,94555.16
2023-04-15T05:41:45.123Z,94557.25
2023-04-15T05:44:13.701Z,94561.19
2023-04-15T05:46:41.207Z,94560.44
2023-04-15T05:49:08.665Z,94562.09
2023-04-15T05:51:35.767Z,94560.22
2023-04-15T05:54:02.872Z,94570.97
2023-04-15T05:56:29.950Z,94564.59
2023-04-15T05:58:57.065Z,94563.56
2023-04-15T06:01:26.103Z,94566.81
2023-04-15T06:03:53.374Z,94569.38
2023-04-15T06:06:20.672Z,94568.09
2023-04-15T06:08:47.776Z,94572.56
2023-04-15T06:11:15.150Z,94579.63
2023-04-15T06:13:42.256Z,94572.91
2023-04-15T06:16:09.538Z,94581.63
2023-04-15T06:18:38.100Z,94583.41
2023-04-15T06:21:05.611Z,94583.94
2023-04-15T06:23:35.010Z,94580.91
2023-04-15T06:26:02.150Z,94593.50
2023-04-15T06:28:29.472Z,94593.56
2023-04-15T06:30:56.748Z,94597.66
2023-04-15T06:33:23.853Z,94596.63
2023-04-15T06:35:52.570Z,94607.94
2023-04-15T06:38:19.810Z,94607.66
2023-04-15T06:40:47.047Z,94608.19
2023-04-15T06:43:14.248Z,94605.00
2023-04-15T06:45:41.456Z,94609.63
2023-04-15T06:48:08.561Z,94610.44
2023-04-15T06:50:35.903Z,94613.72
2023-04-15T06:53:04.491Z,94611.50
2023-04-15T06:55:31.733Z,94611.00
2023-04-15T06:57:58.830Z,94616.97
2023-04-15T07:00:25.982Z,94611.81
2023-04-15T07:02:53.213Z,94618.78
2023-04-15T07:05:20.418Z,94623.91
2023-04-15T07:07:47.689Z,94619.19
2023-04-15T07:10:16.425Z,94613.63
2023-04-15T07:12:43.776Z,94614.28
2023-04-15T07:15:11.808Z,94606.22
2023-04-15T07:17:39.104Z,94600.16
2023-04-15T07:20:07.846Z,94603.34
2023-04-15T07:22:35.287Z,94607.91
2023-04-15T07:25:02.348Z,94602.81
2023-04-15T07:27:31.144Z,94608.66
2023-04-15T07:29:58.347Z,94605.44
2023-04-15T07:32:26.821Z,94608.16
2023-04-15T07:34:54.253Z,94608.06
2023-04-15T07:37:21.545Z,94614.34
2023-04-15T07:39:48.789Z,94605.47
2023-04-15T07:42:16.094Z,94616.25
2023-04-15T07:44:44.842Z,94612.78
2023-04-15T07:47:11.947Z,94618.19
2023-04-15T07:49:39.212Z,94610.84
2023-04-15T07:52:06.351Z,94624.31
2023-04-15T07:54:33.660Z,94625.03
2023-04-15T07:57:00.829Z,94623.06
2023-04-15T07:59:28.035Z,94620.25
2023-04-15T08:01:57.055Z,94622.13
2023-04-15T08:04:24.378Z,94626.91
2023-04-15T08:06:51.872Z,94620.97
2023-04-15T08:09:18.956Z,94621.22
2023-04-15T08:11:48.893Z,94623.50
2023-04-15T08:14:16.373Z,94618.66
2023-04-15T08:16:43.590Z,94624.97
2023-04-15T08:19:12.143Z,94624.88
2023-04-15T08:21:39.550Z,94626.38
2023-04-15T08:24:07.231Z,94626.00
2023-04-15T08:26:34.450Z,94634.03
2023-04-15T08:29:01.888Z,94634.38
2023-04-15T08:31:30.204Z,94636.91
2023-04-15T08:33:57.784Z,94639.84
2023-04-15T08:36:26.930Z,94636.00
2023-04-15T08:38:54.105Z,94642.22
2023-04-15T08:41:23.168Z,94639.72
2023-04-15T08:43:56.875Z,94646.41
2023-04-15T08:46:24.279Z,94650.16
2023-04-15T08:48:52.596Z,94641.84
2023-04-15T08:51:21.833Z,94649.91
2023-04-15T08:53:52.371Z,94651.03
2023-04-15T08:56:23.896Z,94651.03
2023-04-15T08:58:51.452Z,94659.59
2023-04-15T09:01:19.402Z,94650.78
2023-04-15T09:03:49.693Z,94655.28
2023-04-15T09:06:17.775Z,94666.72
2023-04-15T09:08:45.238Z,94667.59
2023-04-15T09:11:13.980Z,94670.94
2023-04-15T09:13:41.131Z,94685.84
2023-04-15T09:16:08.648Z,94681.47
2023-04-15T09:18:38.657Z,94681.16
2023-04-15T09:21:07.571Z,94681.31
2023-04-15T09:23:35.649Z,94681.47
2023-04-15T09:26:03.403Z,94690.47
2023-04-15T09:28:32.910Z,94698.47
2023-04-15T09:31:02.056Z,94707.94
2023-04-15T09:33:30.489Z,94706.59
2023-04-15T09:35:59.552Z,94701.81
2023-04-15T09:38:27.191Z,94710.31
2023-04-15T09:40:54.886Z,94702.66
2023-04-15T09:43:22.051Z,94708.91
2023-04-15T09:45:52.731Z,94710.91
2023-04-15T09:48:21.997Z,94717.50
2023-04-15T09:50:50.303Z,94725.47
2023-04-15T09:53:19.791Z,94731.53
2023-04-15T09:55:50.956Z,94739.28
2023-04-15T09:58:18.931Z,94733.81
2023-04-15T10:00:48.310Z,94740.47
2023-04-15T10:03:20.860Z,94744.38
2023-04-15T10:05:49.934Z,94745.69
2023-04-15T10:08:19.996Z,94748.22
2023-04-15T10:10:48.572Z,94758.91
2023-04-15T10:13:18.826Z,94751.50
2023-04-15T10:15:51.090Z,94760.66
2023-04-15T10:18:21.553Z,94759.78
2023-04-15T10:20:50.096Z,94764.53
2023-04-15T10:23:18.731Z,94765.84
2023-04-15T10:25:47.001Z,94763.41
2023-04-15T10:28:16.472Z,94778.50
2023-04-15T10:30:44.382Z,94781.66
2023-04-15T10:33:12.332Z,94776.88
2023-04-15T10:35:42.814Z,94784.19
2023-04-15T10:38:35.034Z,94782.56
2023-04-15T10:41:21.418Z,94785.50
2023-04-15T10:43:52.268Z,94797.19
2023-04-15T10:46:22.440Z,94810.69
2023-04-15T10:48:51.275Z,94795.25
2023-04-15T10:51:30.128Z,94798.91
2023-04-15T10:53:59.072Z,94802.38
2023-04-15T10:56:26.252Z,94807.53
2023-04-15T10:58:53.436Z,94812.53
2023-04-15T11:01:21.316Z,94806.00
2023-04-15T11:03:49.130Z,94812.97
2023-04-15T11:06:16.317Z,94817.63
2023-04-15T11:08:59.748Z,94819.91
2023-04-15T11:12:05.473Z,94827.47
2023-04-15T11:14:34.409Z,94832.81
2023-04-15T11:17:01.567Z,94830.13
2023-04-15T11:19:37.050Z,94833.72
2023-04-15T11:22:08.294Z,94830.78
2023-04-15T11:24:37.186Z,94838.97
2023-04-15T11:27:04.352Z,94839.78
2023-04-15T11:29:32.732Z,94842.75
2023-04-15T11:32:05.936Z,94833.97
2023-04-15T11:34:35.593Z,94842.78
2023-04-15T11:37:05.334Z,94844.72
2023-04-15T11:39:32.610Z,94849.06
2023-04-15T11:42:01.292Z,94847.25
2023-04-15T11:44:28.472Z,94849.53
2023-04-15T11:46:55.839Z,94860.56
2023-04-15T11:49:30.111Z,94857.63
2023-04-15T11:51:57.313Z,94861.19
2023-04-15T11:54:24.513Z,94862.34
2023-04-15T11:56:52.230Z,94867.72
2023-04-15T11:59:21.051Z,94869.91
2023-04-15T12:01:48.207Z,94870.25
2023-04-15T12:04:17.769Z,94876.31
2023-04-15T12:06:45.250Z,94878.59
2023-04-15T12:09:13.107Z,94881.91
2023-04-15T12:11:42.965Z,94878.22
2023-04-15T12:14:21.848Z,94883.84
2023-04-15T12:16:52.004Z,94887.03
2023-04-15T12:19:25.668Z,94887.03
2023-04-15T12:22:00.080Z,94892.50
2023-04-15T12:24:28.498Z,94894.81
2023-04-15T12:26:57.714Z,94894.22
2023-04-15T12:29:29.327Z,94901.09
2023-04-15T12:31:58.432Z,94907.72
2023-04-15T12:34:30.041Z,94911.06
2023-04-15T12:36:58.805Z,94913.91
2023-04-15T12:39:29.286Z,94917.09
2023-04-15T12:41:58.099Z,94919.31
2023-04-15T12:44:26.854Z,94922.00
2023-04-15T12:46:54.470Z,94922.38
2023-04-15T12:49:22.820Z,94929.88
2023-04-15T12:51:51.385Z,94933.53
2023-04-15T12:54:19.251Z,94942.41
2023-04-15T12:56:47.353Z,94941.50
2023-04-15T12:59:14.851Z,94940.03
2023-04-15T13:01:43.684Z,94941.84
2023-04-15T13:04:11.435Z,94949.63
2023-04-15T13:06:38.720Z,94951.56
2023-04-15T13:09:06.226Z,94951.44
2023-04-15T13:11:34.720Z,94963.00
2023-04-15T13:14:03.974Z,94955.53
2023-04-15T13:16:31.932Z,94965.03
2023-04-15T13:19:01.741Z,94969.38
2023-04-15T13:21:29.149Z,94972.91
2023-04-15T13:23:56.379Z,94978.59
2023-04-15T13:26:23.552Z,94980.22
2023-04-15T13:28:50.790Z,94990.22
2023-04-15T13:31:18.004Z,94986.78
2023-04-15T13:33:45.182Z,94989.22
2023-04-15T13:36:14.169Z,94997.41
2023-04-15T13:38:41.337Z,95005.16
2023-04-15T13:41:08.417Z,94992.03
2023-04-15T13:43:35.518Z,95003.34
2023-04-15T13:46:02.932Z,95002.69
2023-04-15T13:48:30.184Z,95001.47
2023-04-15T13:50:57.371Z,95003.72
2023-04-15T13:53:37.997Z,95011.00
2023-04-15T13:56:07.076Z,95017.56
2023-04-15T13:58:34.384Z,95002.97
2023-04-15T14:01:03.145Z,95011.84
2023-04-15T14:03:32.384Z,95007.94
2023-04-15T14:05:59.958Z,95009.97
2023-04-15T14:08:28.623Z,95010.22
2023-04-15T14:10:55.771Z,95018.28
2023-04-15T14:13:22.872Z,95024.34
2023-04-15T14:15:50.082Z,95032.66
2023-04-15T14:18:17.290Z,95032.59
2023-04-15T14:20:44.487Z,95027.25
2023-04-15T14:23:11.555Z,95031.13
2023-04-15T14:25:40.230Z,95038.22
2023-04-15T14:28:07.447Z,95040.38
2023-04-15T14:30:34.655Z,95046.88
2023-04-15T14:33:02.130Z,95044.13
2023-04-15T14:35:29.553Z,95043.78
2023-04-15T14:37:57.014Z,95055.44
2023-04-15T14:40:24.328Z,95050.72
2023-04-15T14:42:52.937Z,95054.34
2023-04-15T14:45:20.344Z,95056.41
2023-04-15T14:47:47.774Z,95061.81
2023-04-15T14:50:14.948Z,95062.59
2023-04-15T14:52:42.211Z,95069.34
2023-04-15T14:55:11.502Z,95073.25
2023-04-15T14:57:39.412Z,95074.59
2023-04-15T15:00:10.231Z,95073.44
2023-04-15T15:02:40.345Z,95078.50
2023-04-15T15:05:09.822Z,95084.69
2023-04-15T15:07:37.921Z,95089.19
2023-04-15T15:10:06.469Z,95103.59
2023-04-15T15:12:34.254Z,95095.84
2023-04-15T15:15:04.998Z,95100.16
2023-04-15T15:17:38.116Z,95101.78
2023-04-15T15:20:06.329Z,95106.44
2023-04-15T15:22:33.389Z,95110.72
2023-04-15T15:25:00.716Z,95109.66
2023-04-15T15:27:27.889Z,95117.94
2023-04-15T15:29:56.449Z,95118.09
2023-04-15T15:32:23.640Z,95114.72
2023-04-15T15:34:52.412Z,95116.41
2023-04-15T15:37:19.592Z,95124.84
2023-04-15T15:39:46.812Z,95125.22
2023-04-15T15:42:14.000Z,95129.66
2023-04-15T15:44:41.089Z,95132.78
2023-04-15T15:47:08.755Z,95137.75
2023-04-15T15:49:36.055Z,95140.00
2023-04-15T15:52:05.079Z,95143.44
2023-04-15T15:54:32.292Z,95141.84
2023-04-15T15:56:59.483Z,95151.97
2023-04-15T15:59:26.571Z,95155.56
2023-04-15T16:01:53.896Z,95150.69
2023-04-15T16:04:21.817Z,95148.56
2023-04-15T16:06:49.540Z,95157.03
2023-04-15T16:09:18.195Z,95155.03
2023-04-15T16:11:45.917Z,95168.44
2023-04-15T16:14:13.112Z,95169.47
2023-04-15T16:16:40.328Z,95172.81
2023-04-15T16:19:07.610Z,95182.06
2023-04-15T16:21:34.916Z,95184.31
2023-04-15T16:24:02.602Z,95183.97
2023-04-15T16:26:31.416Z,95181.56
2023-04-15T16:28:58.576Z,95186.38
2023-04-15T16:31:25.801Z,95195.25
2023-04-15T16:33:52.974Z,95193.50
2023-04-15T16:36:20.334Z,95193.53
2023-04-15T16:38:47.450Z,95201.41
2023-04-15T16:41:15.890Z,95205.72
2023-04-15T16:43:47.022Z,95208.75
2023-04-15T16:46:17.613Z,95224.25
2023-04-15T16:48:45.111Z,95224.06
2023-04-15T16:51:12.351Z,95236.78
2023-04-15T16:53:39.551Z,95239.84
2023-04-15T16:56:06.966Z,95243.91
2023-04-15T16:58:34.224Z,95247.94
2023-04-15T17:01:04.619Z,95254.22
2023-04-15T17:03:38.286Z,95260.88
2023-04-15T17:06:06.748Z,95256.91
2023-04-15T17:08:34.094Z,95257.09
2023-04-15T17:11:01.897Z,95258.56
2023-04-15T17:13:29.134Z,95256.88
2023-04-15T17:15:56.294Z,95262.00
2023-04-15T17:18:25.644Z,95262.50
2023-04-15T17:20:52.784Z,95270.38
2023-04-15T17:23:20.048Z,95280.66
2023-04-15T17:25:47.187Z,95280.31
2023-04-15T17:28:14.613Z,95271.47
2023-04-15T17:30:41.819Z,95278.09
2023-04-15T17:33:50.520Z,95277.13
2023-04-15T17:35:59.383Z,95290.84
2023-04-15T17:38:26.749Z,95292.78
2023-04-15T17:40:53.857Z,95305.63
2023-04-15T17:43:21.311Z,95306.44
2023-04-15T17:45:48.498Z,95322.00
2023-04-15T17:48:15.687Z,95323.03
2023-04-15T17:50:42.929Z,95333.75
2023-04-15T17:53:11.649Z,95337.00
2023-04-15T17:55:38.782Z,95343.66
2023-04-15T17:58:06.228Z,95342.84
2023-04-15T18:00:33.368Z,95345.50
2023-04-15T18:03:00.660Z,95342.25
2023-04-15T18:05:28.169Z,95350.50
2023-04-15T18:07:55.510Z,95356.19
2023-04-15T18:10:24.274Z,95354.56
2023-04-15T18:12:51.463Z,95361.22
2023-04-15T18:15:19.034Z,95366.91
2023-04-15T18:17:46.458Z,95362.44
2023-04-15T18:20:13.886Z,95372.09
2023-04-15T18:22:41.066Z,95377.78
2023-04-15T18:25:09.251Z,95394.72
2023-04-15T18:27:38.511Z,95390.31
2023-04-15T18:30:07.136Z,95391.53
2023-04-15T18:32:34.481Z,95401.66
2023-04-15T18:35:02.129Z,95403.88
2023-04-15T18:37:29.528Z,95405.69
2023-04-15T18:39:56.878Z,95407.91
2023-04-15T18:42:25.296Z,95407.72
2023-04-15T18:44:54.188Z,95412.16
2023-04-15T18:47:21.572Z,95422.25
2023-04-15T18:49:48.809Z,95432.72
2023-04-15T18:52:16.098Z,95436.50
2023-04-15T18:54:43.253Z,95435.09
2023-04-15T18:57:10.593Z,95439.13
2023-04-15T18:59:37.772Z,95441.75
2023-04-15T19:02:06.565Z,95455.56
2023-04-15T19:04:34.240Z,95466.84
2023-04-15T19:07:02.169Z,95463.94
2023-04-15T19:09:29.751Z,95470.19
2023-04-15T19:11:57.084Z,95466.19
2023-04-15T19:14:24.306Z,95468.94
2023-04-15T19:16:51.543Z,95473.06
2023-04-15T19:19:26.391Z,95477.38
2023-04-15T19:21:59.021Z,95486.31
2023-04-15T19:24:31.078Z,95485.13
2023-04-15T19:27:05.638Z,95491.41
2023-04-15T19:29:33.789Z,95487.16
2023-04-15T19:32:01.153Z,95498.09
2023-04-15T19:34:30.729Z,95497.69
2023-04-15T19:36:58.132Z,95500.72
2023-04-15T19:39:25.432Z,95499.31
2023-04-15T19:41:54.128Z,95511.03
2023-04-15T19:44:22.252Z,95512.63
2023-04-15T19:46:49.469Z,95518.91
2023-04-15T19:49:16.834Z,95518.69
2023-04-15T19:51:45.711Z,95525.97
2023-04-15T19:54:12.971Z,95517.88
2023-04-15T19:56:40.174Z,95524.75
2023-04-15T19:59:07.685Z,95534.00
2023-04-15T20:01:35.233Z,95531.41
2023-04-15T20:04:02.528Z,95533.63
2023-04-15T20:06:30.187Z,95539.66
2023-04-15T20:08:59.032Z,95539.66
2023-04-15T20:11:26.495Z,95544.50
2023-04-15T20:14:13.531Z,95536.03
2023-04-15T20:16:40.718Z,95541.72
2023-04-15T20:19:08.501Z,95538.47
2023-04-15T20:21:40.350Z,95541.88
2023-04-15T20:24:09.869Z,95541.50
2023-04-15T20:26:37.173Z,95541.31
2023-04-15T20:29:04.840Z,95538.06
2023-04-15T20:31:32.377Z,95532.44
2023-04-15T20:34:00.755Z,95537.84
2023-04-15T20:36:28.322Z,95538.28
2023-04-15T20:38:55.588Z,95542.91
2023-04-15T20:41:24.437Z,95535.66
2023-04-15T20:43:51.695Z,95543.31
2023-04-15T20:46:21.432Z,95545.72
2023-04-15T20:48:49.389Z,95542.50
2023-04-15T20:51:16.509Z,95534.44
2023-04-15T20:53:43.874Z,95556.19
2023-04-15T20:56:11.550Z,95554.19
2023-04-15T20:58:40.210Z,95554.56
2023-04-15T21:01:07.313Z,95555.81
2023-04-15T21:03:34.535Z,95556.78
2023-04-15T21:06:02.092Z,95559.81
2023-04-15T21:08:29.195Z,95553.97
2023-04-15T21:10:56.533Z,95558.19
2023-04-15T21:13:24.030Z,95563.22
2023-04-15T21:15:52.808Z,95568.66
2023-04-15T21:18:20.496Z,95566.03
2023-04-15T21:20:55.555Z,95569.44
2023-04-15T21:23:22.772Z,95571.28
2023-04-15T21:25:49.934Z,95573.50
2023-04-15T21:28:17.524Z,95577.97
2023-04-15T21:30:44.853Z,95585.41
2023-04-15T21:33:13.572Z,95580.59
2023-04-15T21:35:40.851Z,95594.09
2023-04-15T21:38:08.488Z,95588.44
2023-04-15T21:40:35.639Z,95582.81
2023-04-15T21:43:02.891Z,95587.66
2023-04-15T21:45:30.767Z,95592.09
2023-04-15T21:48:07.534Z,95588.47
2023-04-15T21:50:37.828Z,95582.41
2023-04-15T21:53:08.080Z,95587.25
2023-04-15T21:55:35.310Z,95585.66
2023-04-15T21:58:02.672Z,95584.22
2023-04-15T22:00:30.080Z,95584.00
2023-04-15T22:02:57.784Z,95596.31
2023-04-15T22:05:26.010Z,95592.28
2023-04-15T22:07:54.647Z,95600.13
2023-04-15T22:10:21.993Z,95599.53
2023-04-15T22:12:49.261Z,95598.94
2023-04-15T22:15:16.614Z,95605.00
2023-04-15T22:17:44.165Z,95605.59
2023-04-15T22:20:11.626Z,95596.31
2023-04-15T22:22:43.871Z,95607.63
2023-04-15T22:25:14.552Z,95606.81
2023-04-15T22:27:41.703Z,95608.59
2023-04-15T22:30:10.094Z,95613.03
2023-04-15T22:32:37.375Z,95609.03
2023-04-15T22:35:05.281Z,95613.44
2023-04-15T22:37:32.428Z,95609.84
2023-04-15T22:39:59.628Z,95607.22
2023-04-15T22:42:28.427Z,95614.25
2023-04-15T22:44:55.527Z,95628.75
2023-04-15T22:47:22.849Z,95625.13
2023-04-15T22:49:50.387Z,95628.38
2023-04-15T22:52:29.382Z,95634.81
2023-04-15T22:54:58.028Z,95635.00
2023-04-15T22:57:25.269Z,95634.63
2023-04-15T22:59:53.948Z,95633.81
2023-04-15T23:02:21.215Z,95632.38
2023-04-15T23:04:48.835Z,95634.38
2023-04-15T23:07:16.026Z,95635.59
2023-04-15T23:09:43.346Z,95643.25
2023-04-15T23:12:10.629Z,95647.50
2023-04-15T23:14:37.814Z,95648.69
2023-04-15T23:17:06.747Z,95643.81
2023-04-15T23:19:33.888Z,95647.84
2023-04-15T23:22:01.138Z,95647.84
2023-04-15T23:24:28.329Z,95652.63
2023-04-15T23:26:55.407Z,95648.00
2023-04-15T23:29:22.486Z,95662.69
2023-04-15T23:31:49.963Z,95662.28
2023-04-15T23:34:18.723Z,95659.88
2023-04-15T23:36:45.906Z,95661.50
2023-04-15T23:39:13.248Z,95656.84
2023-04-15T23:41:40.366Z,95664.47
2023-04-15T23:44:07.551Z,95675.34
2023-04-15T23:46:34.696Z,95667.03
2023-04-15T23:49:01.909Z,95670.88
2023-04-15T23:51:30.466Z,95675.25
2023-04-15T23:53:57.587Z,95676.28
2023-04-15T23:56:24.750Z,95677.88
2023-04-15T23:58:52.027Z,95679.22
